sensor_id;sensor_type;location;lat;lon;timestamp;P1;durP1;ratioP1;P2;durP2;ratioP2
45043;SDS011;30784;48.490;9.688;2024-03-06T00:01:34;14.63;;;8.30;;
45043;SDS011;30784;48.490;9.688;2024-03-06T00:03:59;13.95;;;7.13;;
45043;SDS011;30784;48.490;9.688;2024-03-06T00:06:26;10.70;;;5.88;;
45043;SDS011;30784;48.490;9.688;2024-03-06T00:08:52;10.77;;;5.20;;
45043;SDS011;30784;48.490;9.688;2024-03-06T00:11:17;11.65;;;5.30;;
45043;SDS011;30784;48.490;9.688;2024-03-06T00:13:43;10.52;;;5.47;;
45043;SDS011;30784;48.490;9.688;2024-03-06T00:16:09;11.90;;;5.05;;
45043;SDS011;30784;48.490;9.688;2024-03-06T00:18:35;11.43;;;5.53;;
45043;SDS011;30784;48.490;9.688;2024-03-06T00:21:01;10.18;;;5.50;;
45043;SDS011;30784;48.490;9.688;2024-03-06T00:23:26;9.93;;;5.05;;
45043;SDS011;30784;48.490;9.688;2024-03-06T00:25:52;10.82;;;5.35;;
45043;SDS011;30784;48.490;9.688;2024-03-06T00:28:17;10.38;;;5.38;;
45043;SDS011;30784;48.490;9.688;2024-03-06T00:30:43;9.48;;;5.18;;
45043;SDS011;30784;48.490;9.688;2024-03-06T00:33:08;9.55;;;5.10;;
45043;SDS011;30784;48.490;9.688;2024-03-06T00:35:34;9.70;;;5.15;;
45043;SDS011;30784;48.490;9.688;2024-03-06T00:37:59;9.80;;;5.10;;
45043;SDS011;30784;48.490;9.688;2024-03-06T00:40:28;10.18;;;4.97;;
45043;SDS011;30784;48.490;9.688;2024-03-06T00:42:57;9.25;;;4.95;;
45043;SDS011;30784;48.490;9.688;2024-03-06T00:45:23;9.27;;;5.18;;
45043;SDS011;30784;48.490;9.688;2024-03-06T00:47:49;10.95;;;6.00;;
45043;SDS011;30784;48.490;9.688;2024-03-06T00:50:14;10.88;;;6.22;;
45043;SDS011;30784;48.490;9.688;2024-03-06T00:52:42;9.20;;;4.93;;
45043;SDS011;30784;48.490;9.688;2024-03-06T00:55:08;9.30;;;4.68;;
45043;SDS011;30784;48.490;9.688;2024-03-06T00:57:34;9.85;;;4.57;;
45043;SDS011;30784;48.490;9.688;2024-03-06T01:00:00;9.60;;;4.70;;
45043;SDS011;30784;48.490;9.688;2024-03-06T01:04:56;8.90;;;4.35;;
45043;SDS011;30784;48.490;9.688;2024-03-06T01:07:21;8.73;;;4.10;;
45043;SDS011;30784;48.490;9.688;2024-03-06T01:09:47;9.85;;;4.30;;
45043;SDS011;30784;48.490;9.688;2024-03-06T01:12:13;8.43;;;4.35;;
45043;SDS011;30784;48.490;9.688;2024-03-06T01:14:38;9.02;;;4.65;;
45043;SDS011;30784;48.490;9.688;2024-03-06T01:17:04;8.68;;;4.60;;
45043;SDS011;30784;48.490;9.688;2024-03-06T01:19:30;8.60;;;4.70;;
45043;SDS011;30784;48.490;9.688;2024-03-06T01:21:55;10.05;;;4.75;;
45043;SDS011;30784;48.490;9.688;2024-03-06T01:24:21;7.95;;;4.15;;
45043;SDS011;30784;48.490;9.688;2024-03-06T01:26:46;8.20;;;4.50;;
45043;SDS011;30784;48.490;9.688;2024-03-06T01:29:12;8.02;;;4.38;;
45043;SDS011;30784;48.490;9.688;2024-03-06T01:31:38;9.13;;;4.55;;
45043;SDS011;30784;48.490;9.688;2024-03-06T01:34:03;9.40;;;4.43;;
45043;SDS011;30784;48.490;9.688;2024-03-06T01:36:29;8.82;;;4.43;;
45043;SDS011;30784;48.490;9.688;2024-03-06T01:38:54;8.52;;;4.25;;
45043;SDS011;30784;48.490;9.688;2024-03-06T01:41:20;14.95;;;8.35;;
45043;SDS011;30784;48.490;9.688;2024-03-06T01:43:45;28.33;;;17.85;;
45043;SDS011;30784;48.490;9.688;2024-03-06T01:46:12;13.48;;;7.82;;
45043;SDS011;30784;48.490;9.688;2024-03-06T01:48:37;10.88;;;5.90;;
45043;SDS011;30784;48.490;9.688;2024-03-06T01:51:03;11.27;;;4.95;;
45043;SDS011;30784;48.490;9.688;2024-03-06T01:53:30;10.18;;;5.35;;
45043;SDS011;30784;48.490;9.688;2024-03-06T01:55:57;10.98;;;4.55;;
45043;SDS011;30784;48.490;9.688;2024-03-06T01:58:23;9.82;;;4.45;;
45043;SDS011;30784;48.490;9.688;2024-03-06T02:00:49;10.05;;;4.88;;
45043;SDS011;30784;48.490;9.688;2024-03-06T02:03:15;9.15;;;4.80;;
45043;SDS011;30784;48.490;9.688;2024-03-06T02:05:41;10.60;;;5.10;;
45043;SDS011;30784;48.490;9.688;2024-03-06T02:08:08;10.43;;;4.75;;
45043;SDS011;30784;48.490;9.688;2024-03-06T02:10:34;8.50;;;4.65;;
45043;SDS011;30784;48.490;9.688;2024-03-06T02:13:00;11.48;;;4.85;;
45043;SDS011;30784;48.490;9.688;2024-03-06T02:15:25;9.35;;;5.05;;
45043;SDS011;30784;48.490;9.688;2024-03-06T02:17:51;9.82;;;5.20;;
45043;SDS011;30784;48.490;9.688;2024-03-06T02:20:23;9.75;;;5.00;;
45043;SDS011;30784;48.490;9.688;2024-03-06T02:22:49;10.00;;;4.75;;
45043;SDS011;30784;48.490;9.688;2024-03-06T02:25:15;9.85;;;5.00;;
45043;SDS011;30784;48.490;9.688;2024-03-06T02:27:42;10.40;;;5.10;;
45043;SDS011;30784;48.490;9.688;2024-03-06T02:30:08;9.13;;;4.95;;
45043;SDS011;30784;48.490;9.688;2024-03-06T02:32:34;9.30;;;4.93;;
45043;SDS011;30784;48.490;9.688;2024-03-06T02:35:03;9.20;;;5.07;;
45043;SDS011;30784;48.490;9.688;2024-03-06T02:37:33;8.35;;;4.43;;
45043;SDS011;30784;48.490;9.688;2024-03-06T02:39:59;9.15;;;4.47;;
45043;SDS011;30784;48.490;9.688;2024-03-06T02:42:26;9.75;;;4.43;;
45043;SDS011;30784;48.490;9.688;2024-03-06T02:44:53;10.68;;;4.72;;
45043;SDS011;30784;48.490;9.688;2024-03-06T02:47:19;9.45;;;5.10;;
45043;SDS011;30784;48.490;9.688;2024-03-06T02:49:45;9.80;;;4.90;;
45043;SDS011;30784;48.490;9.688;2024-03-06T02:52:10;10.35;;;5.28;;
45043;SDS011;30784;48.490;9.688;2024-03-06T02:54:36;10.45;;;5.07;;
45043;SDS011;30784;48.490;9.688;2024-03-06T02:57:01;9.27;;;5.18;;
45043;SDS011;30784;48.490;9.688;2024-03-06T02:59:27;9.27;;;4.70;;
45043;SDS011;30784;48.490;9.688;2024-03-06T03:01:52;10.75;;;4.90;;
45043;SDS011;30784;48.490;9.688;2024-03-06T03:04:18;9.43;;;4.70;;
45043;SDS011;30784;48.490;9.688;2024-03-06T03:06:44;9.48;;;5.18;;
45043;SDS011;30784;48.490;9.688;2024-03-06T03:09:09;8.88;;;4.85;;
45043;SDS011;30784;48.490;9.688;2024-03-06T03:11:37;8.75;;;4.47;;
45043;SDS011;30784;48.490;9.688;2024-03-06T03:14:03;9.95;;;4.82;;
45043;SDS011;30784;48.490;9.688;2024-03-06T03:16:28;9.77;;;4.82;;
45043;SDS011;30784;48.490;9.688;2024-03-06T03:18:54;8.88;;;4.70;;
45043;SDS011;30784;48.490;9.688;2024-03-06T03:21:20;8.98;;;4.70;;
45043;SDS011;30784;48.490;9.688;2024-03-06T03:23:47;8.30;;;4.65;;
45043;SDS011;30784;48.490;9.688;2024-03-06T03:26:13;9.80;;;4.88;;
45043;SDS011;30784;48.490;9.688;2024-03-06T03:28:39;9.27;;;4.85;;
45043;SDS011;30784;48.490;9.688;2024-03-06T03:31:08;10.13;;;5.38;;
45043;SDS011;30784;48.490;9.688;2024-03-06T03:33:35;9.05;;;4.63;;
45043;SDS011;30784;48.490;9.688;2024-03-06T03:36:05;9.97;;;5.03;;
45043;SDS011;30784;48.490;9.688;2024-03-06T03:38:32;8.65;;;4.70;;
45043;SDS011;30784;48.490;9.688;2024-03-06T03:41:00;8.88;;;5.03;;
45043;SDS011;30784;48.490;9.688;2024-03-06T03:43:28;10.45;;;5.07;;
45043;SDS011;30784;48.490;9.688;2024-03-06T03:45:54;8.93;;;4.60;;
45043;SDS011;30784;48.490;9.688;2024-03-06T03:48:20;8.52;;;4.50;;
45043;SDS011;30784;48.490;9.688;2024-03-06T03:50:45;8.65;;;4.78;;
45043;SDS011;30784;48.490;9.688;2024-03-06T03:53:11;9.70;;;4.97;;
45043;SDS011;30784;48.490;9.688;2024-03-06T03:55:36;8.52;;;4.82;;
45043;SDS011;30784;48.490;9.688;2024-03-06T03:58:02;10.65;;;5.25;;
45043;SDS011;30784;48.490;9.688;2024-03-06T04:00:27;9.88;;;5.32;;
45043;SDS011;30784;48.490;9.688;2024-03-06T04:02:53;8.73;;;5.10;;
45043;SDS011;30784;48.490;9.688;2024-03-06T04:05:18;9.77;;;5.18;;
45043;SDS011;30784;48.490;9.688;2024-03-06T04:07:44;9.50;;;4.65;;
45043;SDS011;30784;48.490;9.688;2024-03-06T04:10:09;9.15;;;4.97;;
45043;SDS011;30784;48.490;9.688;2024-03-06T04:12:36;9.70;;;4.70;;
45043;SDS011;30784;48.490;9.688;2024-03-06T04:15:02;9.30;;;4.95;;
45043;SDS011;30784;48.490;9.688;2024-03-06T04:17:29;8.75;;;4.65;;
45043;SDS011;30784;48.490;9.688;2024-03-06T04:19:54;9.43;;;5.18;;
45043;SDS011;30784;48.490;9.688;2024-03-06T04:22:20;9.40;;;5.50;;
45043;SDS011;30784;48.490;9.688;2024-03-06T04:24:46;8.90;;;5.00;;
45043;SDS011;30784;48.490;9.688;2024-03-06T04:27:11;10.20;;;5.13;;
45043;SDS011;30784;48.490;9.688;2024-03-06T04:29:37;9.38;;;4.53;;
45043;SDS011;30784;48.490;9.688;2024-03-06T04:32:03;9.35;;;4.97;;
45043;SDS011;30784;48.490;9.688;2024-03-06T04:34:29;9.88;;;4.65;;
45043;SDS011;30784;48.490;9.688;2024-03-06T04:36:54;9.32;;;4.75;;
45043;SDS011;30784;48.490;9.688;2024-03-06T04:39:20;9.15;;;4.70;;
45043;SDS011;30784;48.490;9.688;2024-03-06T04:41:45;8.45;;;4.60;;
45043;SDS011;30784;48.490;9.688;2024-03-06T04:44:11;9.27;;;4.55;;
45043;SDS011;30784;48.490;9.688;2024-03-06T04:46:37;8.20;;;4.40;;
45043;SDS011;30784;48.490;9.688;2024-03-06T04:49:02;8.30;;;4.25;;
45043;SDS011;30784;48.490;9.688;2024-03-06T04:51:28;8.60;;;4.47;;
45043;SDS011;30784;48.490;9.688;2024-03-06T04:53:54;7.97;;;4.15;;
45043;SDS011;30784;48.490;9.688;2024-03-06T04:56:19;8.25;;;4.05;;
45043;SDS011;30784;48.490;9.688;2024-03-06T04:58:45;8.20;;;4.35;;
45043;SDS011;30784;48.490;9.688;2024-03-06T05:01:11;8.93;;;5.00;;
45043;SDS011;30784;48.490;9.688;2024-03-06T05:03:38;10.18;;;5.10;;
45043;SDS011;30784;48.490;9.688;2024-03-06T05:06:06;8.75;;;4.50;;
45043;SDS011;30784;48.490;9.688;2024-03-06T05:08:32;8.05;;;4.10;;
45043;SDS011;30784;48.490;9.688;2024-03-06T05:10:59;8.80;;;4.55;;
45043;SDS011;30784;48.490;9.688;2024-03-06T05:13:26;8.13;;;4.13;;
45043;SDS011;30784;48.490;9.688;2024-03-06T05:15:51;8.57;;;4.10;;
45043;SDS011;30784;48.490;9.688;2024-03-06T05:18:19;7.78;;;3.95;;
45043;SDS011;30784;48.490;9.688;2024-03-06T05:20:45;8.15;;;4.30;;
45043;SDS011;30784;48.490;9.688;2024-03-06T05:23:11;8.52;;;4.28;;
45043;SDS011;30784;48.490;9.688;2024-03-06T05:25:37;7.07;;;3.60;;
45043;SDS011;30784;48.490;9.688;2024-03-06T05:28:03;8.05;;;3.83;;
45043;SDS011;30784;48.490;9.688;2024-03-06T05:30:29;8.23;;;3.58;;
45043;SDS011;30784;48.490;9.688;2024-03-06T05:32:55;8.68;;;3.70;;
45043;SDS011;30784;48.490;9.688;2024-03-06T05:35:21;7.30;;;3.78;;
45043;SDS011;30784;48.490;9.688;2024-03-06T05:37:46;8.38;;;3.88;;
45043;SDS011;30784;48.490;9.688;2024-03-06T05:40:12;9.05;;;3.75;;
45043;SDS011;30784;48.490;9.688;2024-03-06T05:42:38;7.18;;;3.72;;
45043;SDS011;30784;48.490;9.688;2024-03-06T05:45:04;7.95;;;3.70;;
45043;SDS011;30784;48.490;9.688;2024-03-06T05:47:35;7.85;;;3.92;;
45043;SDS011;30784;48.490;9.688;2024-03-06T05:50:01;7.80;;;3.70;;
45043;SDS011;30784;48.490;9.688;2024-03-06T05:52:29;10.32;;;4.35;;
45043;SDS011;30784;48.490;9.688;2024-03-06T05:54:55;8.70;;;4.00;;
45043;SDS011;30784;48.490;9.688;2024-03-06T05:57:21;8.15;;;3.97;;
45043;SDS011;30784;48.490;9.688;2024-03-06T05:59:46;8.48;;;3.85;;
45043;SDS011;30784;48.490;9.688;2024-03-06T06:02:12;7.85;;;3.80;;
45043;SDS011;30784;48.490;9.688;2024-03-06T06:04:37;7.20;;;3.30;;
45043;SDS011;30784;48.490;9.688;2024-03-06T06:07:03;6.53;;;3.10;;
45043;SDS011;30784;48.490;9.688;2024-03-06T06:09:28;7.32;;;3.35;;
45043;SDS011;30784;48.490;9.688;2024-03-06T06:11:54;7.28;;;3.42;;
45043;SDS011;30784;48.490;9.688;2024-03-06T06:14:20;6.80;;;3.20;;
45043;SDS011;30784;48.490;9.688;2024-03-06T06:16:45;7.38;;;3.00;;
45043;SDS011;30784;48.490;9.688;2024-03-06T06:19:11;7.28;;;3.30;;
45043;SDS011;30784;48.490;9.688;2024-03-06T06:21:36;8.60;;;4.10;;
45043;SDS011;30784;48.490;9.688;2024-03-06T06:24:02;7.28;;;3.55;;
45043;SDS011;30784;48.490;9.688;2024-03-06T06:26:29;7.88;;;3.47;;
45043;SDS011;30784;48.490;9.688;2024-03-06T06:28:55;7.50;;;3.80;;
45043;SDS011;30784;48.490;9.688;2024-03-06T06:31:22;8.55;;;3.40;;
45043;SDS011;30784;48.490;9.688;2024-03-06T06:33:48;7.97;;;3.80;;
45043;SDS011;30784;48.490;9.688;2024-03-06T06:36:14;8.30;;;3.47;;
45043;SDS011;30784;48.490;9.688;2024-03-06T06:38:40;8.20;;;3.75;;
45043;SDS011;30784;48.490;9.688;2024-03-06T06:41:05;9.68;;;4.15;;
45043;SDS011;30784;48.490;9.688;2024-03-06T06:43:31;7.25;;;3.45;;
45043;SDS011;30784;48.490;9.688;2024-03-06T06:45:56;7.88;;;3.80;;
45043;SDS011;30784;48.490;9.688;2024-03-06T06:48:22;7.35;;;3.30;;
45043;SDS011;30784;48.490;9.688;2024-03-06T06:50:47;7.35;;;3.42;;
45043;SDS011;30784;48.490;9.688;2024-03-06T06:53:13;7.88;;;3.70;;
45043;SDS011;30784;48.490;9.688;2024-03-06T06:55:39;8.73;;;4.15;;
45043;SDS011;30784;48.490;9.688;2024-03-06T06:58:04;8.27;;;4.07;;
45043;SDS011;30784;48.490;9.688;2024-03-06T07:00:31;9.48;;;4.93;;
45043;SDS011;30784;48.490;9.688;2024-03-06T07:02:57;9.15;;;4.72;;
45043;SDS011;30784;48.490;9.688;2024-03-06T07:05:23;9.77;;;4.40;;
45043;SDS011;30784;48.490;9.688;2024-03-06T07:07:49;8.55;;;4.22;;
45043;SDS011;30784;48.490;9.688;2024-03-06T07:10:14;8.75;;;4.57;;
45043;SDS011;30784;48.490;9.688;2024-03-06T07:12:40;8.90;;;4.85;;
45043;SDS011;30784;48.490;9.688;2024-03-06T07:15:06;9.98;;;4.97;;
45043;SDS011;30784;48.490;9.688;2024-03-06T07:17:31;9.48;;;4.65;;
45043;SDS011;30784;48.490;9.688;2024-03-06T07:19:57;9.52;;;4.30;;
45043;SDS011;30784;48.490;9.688;2024-03-06T07:22:23;9.32;;;4.50;;
45043;SDS011;30784;48.490;9.688;2024-03-06T07:24:49;8.50;;;3.80;;
45043;SDS011;30784;48.490;9.688;2024-03-06T07:27:15;8.70;;;3.95;;
45043;SDS011;30784;48.490;9.688;2024-03-06T07:29:41;8.48;;;4.03;;
45043;SDS011;30784;48.490;9.688;2024-03-06T07:32:06;9.27;;;4.18;;
45043;SDS011;30784;48.490;9.688;2024-03-06T07:34:32;8.43;;;4.10;;
45043;SDS011;30784;48.490;9.688;2024-03-06T07:36:57;8.65;;;3.95;;
45043;SDS011;30784;48.490;9.688;2024-03-06T07:39:24;8.00;;;3.60;;
45043;SDS011;30784;48.490;9.688;2024-03-06T07:41:50;8.50;;;3.85;;
45043;SDS011;30784;48.490;9.688;2024-03-06T07:44:16;8.40;;;3.75;;
45043;SDS011;30784;48.490;9.688;2024-03-06T07:46:41;8.45;;;3.70;;
45043;SDS011;30784;48.490;9.688;2024-03-06T07:49:07;8.27;;;3.60;;
45043;SDS011;30784;48.490;9.688;2024-03-06T07:51:32;10.27;;;5.18;;
45043;SDS011;30784;48.490;9.688;2024-03-06T07:53:59;13.45;;;6.15;;
45043;SDS011;30784;48.490;9.688;2024-03-06T07:56:27;9.75;;;4.47;;
45043;SDS011;30784;48.490;9.688;2024-03-06T07:58:53;7.18;;;3.00;;
45043;SDS011;30784;48.490;9.688;2024-03-06T08:01:19;6.78;;;2.80;;
45043;SDS011;30784;48.490;9.688;2024-03-06T08:03:45;6.28;;;2.65;;
45043;SDS011;30784;48.490;9.688;2024-03-06T08:06:11;7.38;;;3.10;;
45043;SDS011;30784;48.490;9.688;2024-03-06T08:08:40;7.07;;;3.20;;
45043;SDS011;30784;48.490;9.688;2024-03-06T08:11:06;6.93;;;2.70;;
45043;SDS011;30784;48.490;9.688;2024-03-06T08:13:32;7.05;;;2.90;;
45043;SDS011;30784;48.490;9.688;2024-03-06T08:15:57;6.82;;;2.90;;
45043;SDS011;30784;48.490;9.688;2024-03-06T08:18:23;6.50;;;2.78;;
45043;SDS011;30784;48.490;9.688;2024-03-06T08:20:48;6.20;;;2.50;;
45043;SDS011;30784;48.490;9.688;2024-03-06T08:23:14;6.93;;;2.78;;
45043;SDS011;30784;48.490;9.688;2024-03-06T08:25:39;6.63;;;2.80;;
45043;SDS011;30784;48.490;9.688;2024-03-06T08:28:05;7.22;;;2.97;;
45043;SDS011;30784;48.490;9.688;2024-03-06T08:30:31;7.43;;;2.83;;
45043;SDS011;30784;48.490;9.688;2024-03-06T08:32:57;7.13;;;3.00;;
45043;SDS011;30784;48.490;9.688;2024-03-06T08:35:23;7.57;;;3.05;;
45043;SDS011;30784;48.490;9.688;2024-03-06T08:37:49;8.63;;;2.97;;
45043;SDS011;30784;48.490;9.688;2024-03-06T08:40:15;7.20;;;3.00;;
45043;SDS011;30784;48.490;9.688;2024-03-06T08:42:42;7.28;;;3.13;;
45043;SDS011;30784;48.490;9.688;2024-03-06T08:45:17;7.50;;;3.35;;
45043;SDS011;30784;48.490;9.688;2024-03-06T08:47:43;8.38;;;3.35;;
45043;SDS011;30784;48.490;9.688;2024-03-06T08:50:10;7.30;;;3.17;;
45043;SDS011;30784;48.490;9.688;2024-03-06T08:52:36;7.70;;;3.15;;
45043;SDS011;30784;48.490;9.688;2024-03-06T08:55:02;7.30;;;3.10;;
45043;SDS011;30784;48.490;9.688;2024-03-06T08:57:31;7.38;;;3.33;;
45043;SDS011;30784;48.490;9.688;2024-03-06T08:59:58;7.32;;;3.30;;
45043;SDS011;30784;48.490;9.688;2024-03-06T09:02:24;6.65;;;2.80;;
45043;SDS011;30784;48.490;9.688;2024-03-06T09:04:50;7.28;;;3.35;;
45043;SDS011;30784;48.490;9.688;2024-03-06T09:07:16;7.50;;;3.50;;
45043;SDS011;30784;48.490;9.688;2024-03-06T09:09:42;6.85;;;2.95;;
45043;SDS011;30784;48.490;9.688;2024-03-06T09:12:09;7.80;;;3.25;;
45043;SDS011;30784;48.490;9.688;2024-03-06T09:14:35;7.25;;;3.13;;
45043;SDS011;30784;48.490;9.688;2024-03-06T09:17:03;8.35;;;3.10;;
45043;SDS011;30784;48.490;9.688;2024-03-06T09:19:29;7.88;;;3.63;;
45043;SDS011;30784;48.490;9.688;2024-03-06T09:21:55;7.80;;;3.45;;
45043;SDS011;30784;48.490;9.688;2024-03-06T09:24:21;9.13;;;4.15;;
45043;SDS011;30784;48.490;9.688;2024-03-06T09:26:48;8.48;;;3.53;;
45043;SDS011;30784;48.490;9.688;2024-03-06T09:29:14;9.75;;;4.32;;
45043;SDS011;30784;48.490;9.688;2024-03-06T09:31:40;9.05;;;4.18;;
45043;SDS011;30784;48.490;9.688;2024-03-06T09:34:06;9.07;;;4.05;;
45043;SDS011;30784;48.490;9.688;2024-03-06T09:36:32;8.68;;;4.28;;
45043;SDS011;30784;48.490;9.688;2024-03-06T09:38:58;9.57;;;4.28;;
45043;SDS011;30784;48.490;9.688;2024-03-06T09:41:24;9.60;;;4.50;;
45043;SDS011;30784;48.490;9.688;2024-03-06T09:43:50;9.35;;;4.25;;
45043;SDS011;30784;48.490;9.688;2024-03-06T09:46:15;10.82;;;4.90;;
45043;SDS011;30784;48.490;9.688;2024-03-06T09:48:45;9.85;;;4.70;;
45043;SDS011;30784;48.490;9.688;2024-03-06T09:51:12;10.18;;;5.45;;
45043;SDS011;30784;48.490;9.688;2024-03-06T09:53:38;9.23;;;4.43;;
45043;SDS011;30784;48.490;9.688;2024-03-06T09:56:05;9.05;;;4.72;;
45043;SDS011;30784;48.490;9.688;2024-03-06T09:58:31;7.50;;;3.78;;
45043;SDS011;30784;48.490;9.688;2024-03-06T10:00:58;8.65;;;3.85;;
45043;SDS011;30784;48.490;9.688;2024-03-06T10:03:25;8.15;;;3.83;;
45043;SDS011;30784;48.490;9.688;2024-03-06T10:05:52;7.63;;;3.55;;
45043;SDS011;30784;48.490;9.688;2024-03-06T10:08:19;8.77;;;4.13;;
45043;SDS011;30784;48.490;9.688;2024-03-06T10:10:46;8.82;;;3.92;;
45043;SDS011;30784;48.490;9.688;2024-03-06T10:13:15;8.07;;;3.60;;
45043;SDS011;30784;48.490;9.688;2024-03-06T10:16:03;9.02;;;4.32;;
45043;SDS011;30784;48.490;9.688;2024-03-06T10:18:33;8.48;;;4.07;;
45043;SDS011;30784;48.490;9.688;2024-03-06T10:20:59;7.85;;;3.30;;
45043;SDS011;30784;48.490;9.688;2024-03-06T10:23:25;8.32;;;3.65;;
45043;SDS011;30784;48.490;9.688;2024-03-06T10:25:54;7.05;;;3.13;;
45043;SDS011;30784;48.490;9.688;2024-03-06T10:28:20;6.78;;;2.80;;
45043;SDS011;30784;48.490;9.688;2024-03-06T10:30:50;6.38;;;2.67;;
45043;SDS011;30784;48.490;9.688;2024-03-06T10:33:17;6.68;;;2.67;;
45043;SDS011;30784;48.490;9.688;2024-03-06T10:35:46;6.22;;;2.42;;
45043;SDS011;30784;48.490;9.688;2024-03-06T10:38:16;5.68;;;2.28;;
45043;SDS011;30784;48.490;9.688;2024-03-06T10:40:43;5.65;;;2.10;;
45043;SDS011;30784;48.490;9.688;2024-03-06T10:43:09;6.30;;;2.50;;
45043;SDS011;30784;48.490;9.688;2024-03-06T10:45:51;6.57;;;2.50;;
45043;SDS011;30784;48.490;9.688;2024-03-06T10:50:52;6.40;;;2.30;;
45043;SDS011;30784;48.490;9.688;2024-03-06T10:53:19;6.38;;;2.38;;
45043;SDS011;30784;48.490;9.688;2024-03-06T10:55:46;6.15;;;2.40;;
45043;SDS011;30784;48.490;9.688;2024-03-06T10:58:13;6.40;;;2.10;;
45043;SDS011;30784;48.490;9.688;2024-03-06T11:00:42;6.03;;;2.20;;
45043;SDS011;30784;48.490;9.688;2024-03-06T11:03:13;6.45;;;2.35;;
45043;SDS011;30784;48.490;9.688;2024-03-06T11:05:41;5.57;;;2.17;;
45043;SDS011;30784;48.490;9.688;2024-03-06T11:08:09;5.50;;;2.10;;
45043;SDS011;30784;48.490;9.688;2024-03-06T11:10:39;5.35;;;1.90;;
45043;SDS011;30784;48.490;9.688;2024-03-06T11:13:20;5.60;;;2.20;;
45043;SDS011;30784;48.490;9.688;2024-03-06T11:15:51;6.25;;;2.33;;
45043;SDS011;30784;48.490;9.688;2024-03-06T11:21:01;8.13;;;2.88;;
45043;SDS011;30784;48.490;9.688;2024-03-06T11:26:41;6.53;;;2.75;;
45043;SDS011;30784;48.490;9.688;2024-03-06T11:29:08;6.07;;;2.60;;
45043;SDS011;30784;48.490;9.688;2024-03-06T11:31:33;6.22;;;2.45;;
45043;SDS011;30784;48.490;9.688;2024-03-06T11:34:01;6.75;;;2.78;;
45043;SDS011;30784;48.490;9.688;2024-03-06T11:36:29;6.63;;;2.72;;
45043;SDS011;30784;48.490;9.688;2024-03-06T11:38:56;6.53;;;2.70;;
45043;SDS011;30784;48.490;9.688;2024-03-06T11:44:09;7.53;;;3.25;;
45043;SDS011;30784;48.490;9.688;2024-03-06T11:46:44;8.65;;;3.30;;
45043;SDS011;30784;48.490;9.688;2024-03-06T11:49:17;7.20;;;3.08;;
45043;SDS011;30784;48.490;9.688;2024-03-06T11:51:45;7.22;;;3.00;;
45043;SDS011;30784;48.490;9.688;2024-03-06T11:54:12;7.38;;;3.50;;
45043;SDS011;30784;48.490;9.688;2024-03-06T11:56:41;7.13;;;3.10;;
45043;SDS011;30784;48.490;9.688;2024-03-06T11:59:10;7.40;;;3.35;;
45043;SDS011;30784;48.490;9.688;2024-03-06T12:01:40;8.65;;;4.00;;
45043;SDS011;30784;48.490;9.688;2024-03-06T12:04:06;7.93;;;3.67;;
45043;SDS011;30784;48.490;9.688;2024-03-06T12:06:34;8.40;;;3.58;;
45043;SDS011;30784;48.490;9.688;2024-03-06T12:09:00;6.68;;;3.13;;
45043;SDS011;30784;48.490;9.688;2024-03-06T12:11:26;7.63;;;3.42;;
45043;SDS011;30784;48.490;9.688;2024-03-06T12:13:53;7.05;;;3.53;;
45043;SDS011;30784;48.490;9.688;2024-03-06T12:16:19;7.05;;;3.10;;
45043;SDS011;30784;48.490;9.688;2024-03-06T12:18:45;7.93;;;3.80;;
45043;SDS011;30784;48.490;9.688;2024-03-06T12:21:11;8.07;;;3.85;;
45043;SDS011;30784;48.490;9.688;2024-03-06T12:23:38;7.45;;;3.30;;
45043;SDS011;30784;48.490;9.688;2024-03-06T12:26:08;8.85;;;3.70;;
45043;SDS011;30784;48.490;9.688;2024-03-06T12:28:36;7.70;;;3.20;;
45043;SDS011;30784;48.490;9.688;2024-03-06T12:31:04;7.38;;;3.35;;
45043;SDS011;30784;48.490;9.688;2024-03-06T12:33:32;7.55;;;2.95;;
45043;SDS011;30784;48.490;9.688;2024-03-06T12:38:31;7.13;;;3.30;;
45043;SDS011;30784;48.490;9.688;2024-03-06T12:40:57;6.80;;;3.20;;
45043;SDS011;30784;48.490;9.688;2024-03-06T12:43:23;6.78;;;3.08;;
45043;SDS011;30784;48.490;9.688;2024-03-06T12:45:49;10.43;;;4.60;;
45043;SDS011;30784;48.490;9.688;2024-03-06T12:48:15;10.23;;;4.32;;
45043;SDS011;30784;48.490;9.688;2024-03-06T12:50:40;9.75;;;4.38;;
45043;SDS011;30784;48.490;9.688;2024-03-06T12:53:07;9.55;;;4.13;;
45043;SDS011;30784;48.490;9.688;2024-03-06T12:55:33;8.27;;;3.80;;
45043;SDS011;30784;48.490;9.688;2024-03-06T12:57:58;8.23;;;3.72;;
45043;SDS011;30784;48.490;9.688;2024-03-06T13:00:24;8.93;;;3.47;;
45043;SDS011;30784;48.490;9.688;2024-03-06T13:02:50;7.93;;;3.33;;
45043;SDS011;30784;48.490;9.688;2024-03-06T13:05:16;6.70;;;3.00;;
45043;SDS011;30784;48.490;9.688;2024-03-06T13:07:42;7.88;;;3.50;;
45043;SDS011;30784;48.490;9.688;2024-03-06T13:10:09;7.30;;;3.28;;
45043;SDS011;30784;48.490;9.688;2024-03-06T13:12:36;6.88;;;3.20;;
45043;SDS011;30784;48.490;9.688;2024-03-06T13:15:02;7.60;;;3.28;;
45043;SDS011;30784;48.490;9.688;2024-03-06T13:17:29;6.80;;;2.90;;
45043;SDS011;30784;48.490;9.688;2024-03-06T13:19:55;6.40;;;2.47;;
45043;SDS011;30784;48.490;9.688;2024-03-06T13:22:21;5.53;;;2.13;;
45043;SDS011;30784;48.490;9.688;2024-03-06T13:24:47;5.70;;;2.10;;
45043;SDS011;30784;48.490;9.688;2024-03-06T13:27:13;6.25;;;2.42;;
45043;SDS011;30784;48.490;9.688;2024-03-06T13:29:39;7.88;;;2.47;;
45043;SDS011;30784;48.490;9.688;2024-03-06T13:32:06;6.03;;;2.20;;
45043;SDS011;30784;48.490;9.688;2024-03-06T13:34:32;6.78;;;2.60;;
45043;SDS011;30784;48.490;9.688;2024-03-06T13:36:58;6.00;;;2.30;;
45043;SDS011;30784;48.490;9.688;2024-03-06T13:39:24;6.47;;;2.60;;
45043;SDS011;30784;48.490;9.688;2024-03-06T13:41:50;6.03;;;2.53;;
45043;SDS011;30784;48.490;9.688;2024-03-06T13:44:17;6.28;;;2.55;;
45043;SDS011;30784;48.490;9.688;2024-03-06T13:46:43;5.80;;;2.13;;
45043;SDS011;30784;48.490;9.688;2024-03-06T13:49:12;5.88;;;2.40;;
45043;SDS011;30784;48.490;9.688;2024-03-06T13:52:01;6.97;;;2.80;;
45043;SDS011;30784;48.490;9.688;2024-03-06T13:54:27;6.90;;;2.67;;
45043;SDS011;30784;48.490;9.688;2024-03-06T13:56:52;6.50;;;2.63;;
45043;SDS011;30784;48.490;9.688;2024-03-06T13:59:26;7.18;;;2.85;;
45043;SDS011;30784;48.490;9.688;2024-03-06T14:01:52;6.43;;;2.55;;
45043;SDS011;30784;48.490;9.688;2024-03-06T14:04:18;7.15;;;2.88;;
45043;SDS011;30784;48.490;9.688;2024-03-06T14:06:44;7.93;;;2.90;;
45043;SDS011;30784;48.490;9.688;2024-03-06T14:09:09;6.35;;;2.13;;
45043;SDS011;30784;48.490;9.688;2024-03-06T14:11:35;6.95;;;2.58;;
45043;SDS011;30784;48.490;9.688;2024-03-06T14:14:00;6.43;;;2.63;;
45043;SDS011;30784;48.490;9.688;2024-03-06T14:16:26;6.68;;;2.80;;
45043;SDS011;30784;48.490;9.688;2024-03-06T14:18:52;6.90;;;2.72;;
45043;SDS011;30784;48.490;9.688;2024-03-06T14:21:18;6.07;;;2.25;;
45043;SDS011;30784;48.490;9.688;2024-03-06T14:23:44;6.60;;;2.33;;
45043;SDS011;30784;48.490;9.688;2024-03-06T14:26:09;6.03;;;2.30;;
45043;SDS011;30784;48.490;9.688;2024-03-06T14:28:35;5.93;;;2.38;;
45043;SDS011;30784;48.490;9.688;2024-03-06T14:31:03;6.60;;;2.15;;
45043;SDS011;30784;48.490;9.688;2024-03-06T14:33:28;6.55;;;3.10;;
45043;SDS011;30784;48.490;9.688;2024-03-06T14:35:54;6.68;;;2.92;;
45043;SDS011;30784;48.490;9.688;2024-03-06T14:38:20;6.80;;;2.95;;
45043;SDS011;30784;48.490;9.688;2024-03-06T14:40:45;6.20;;;2.75;;
45043;SDS011;30784;48.490;9.688;2024-03-06T14:43:11;6.35;;;2.45;;
45043;SDS011;30784;48.490;9.688;2024-03-06T14:45:37;6.03;;;2.38;;
45043;SDS011;30784;48.490;9.688;2024-03-06T14:48:07;5.50;;;2.10;;
45043;SDS011;30784;48.490;9.688;2024-03-06T14:50:33;5.28;;;2.15;;
45043;SDS011;30784;48.490;9.688;2024-03-06T14:52:58;6.35;;;2.60;;
45043;SDS011;30784;48.490;9.688;2024-03-06T14:55:24;6.47;;;2.47;;
45043;SDS011;30784;48.490;9.688;2024-03-06T14:57:49;6.97;;;2.45;;